Terminal Aerodrome Forecast
Issued by NWS Blacksburg, VA

Current Version | Previous Version | Text Only | Print | Product List | Glossary Off
Versions: 1 2 3 4 5 6 7 8 9 10 11 12 13 14 15 16 17 18 19 20 21 22 23 24 25 26 27

000
FTUS41 KRNK 270135 AAA
TAFBLF
TAF AMD
KBLF 270135Z 2702/2724 19010KT P6SM VCSH SCT040 BKN080
     FM270500 20009KT P6SM BKN050 BKN120
     FM270900 23006KT 4SM -SHRA SCT015 OVC040
     FM271400 26008KT P6SM SCT025 BKN060=

USA.gov is the U.S. government's official web portal to all federal, state and local government web resources and services.